Time;durP1;ratioP1;P1;durP2;ratioP2;P2;SDS_P1;SDS_P2;PMS_P1;PMS_P2;Temp;Humidity;BMP_temperature;BMP_pressure;BME280_temperature;BME280_humidity;BME280_pressure;Samples;Min_cycle;Max_cycle;Signal;HPM_P1;HPM_P2
2024/02/06 00:02:14;;;;;;;;;15.00;10.00;;;;;-144.24;100.00;112873.66;5048427;28;45230;-71
2024/02/06 00:04:39;;;;;;;;;13.00;13.00;;;;;-144.24;100.00;112794.22;5036117;28;45363;-71
2024/02/06 00:07:05;;;;;;;;;15.67;10.67;;;;;-144.24;100.00;112706.66;5051039;28;57182;-72
2024/02/06 00:09:31;;;;;;;;;9.67;9.67;;;;;-144.24;100.00;112580.41;5048960;28;46558;-71
2024/02/06 00:11:56;;;;;;;;;13.00;10.00;;;;;-144.24;100.00;112549.84;5044221;28;46478;-72
2024/02/06 00:14:21;;;;;;;;;17.33;12.33;;;;;-144.24;100.00;112492.84;5038168;28;45461;-71
2024/02/06 00:16:47;;;;;;;;;15.00;12.33;;;;;-144.24;100.00;112480.63;5055856;28;61218;-75
2024/02/06 00:19:12;;;;;;;;;14.00;10.00;;;;;-144.24;100.00;112325.84;5037534;28;46203;-71
2024/02/06 00:21:37;;;;;;;;;15.00;10.75;;;;;-144.24;100.00;112258.66;5055131;28;70807;-72
2024/02/06 00:24:03;;;;;;;;;15.00;10.00;;;;;-144.24;100.00;112181.28;5054041;28;67592;-74
2024/02/06 00:26:28;;;;;;;;;10.67;9.67;;;;;-144.24;100.00;112268.84;5051962;28;45567;-70
2024/02/06 00:28:54;;;;;;;;;9.00;9.00;;;;;-144.24;100.00;112112.03;5048295;28;70317;-71
2024/02/06 00:31:19;;;;;;;;;13.33;10.00;;;;;-144.24;100.00;112136.47;5035914;28;45540;-70
2024/02/06 00:33:44;;;;;;;;;15.00;10.33;;;;;-144.24;100.00;112073.34;5051591;28;51620;-73
2024/02/06 00:36:10;;;;;;;;;13.33;10.00;;;;;-144.24;100.00;112002.09;5054034;28;64721;-71
2024/02/06 00:38:35;;;;;;;;;12.00;10.67;;;;;-144.24;100.00;111959.31;5055614;28;70256;-71
2024/02/06 00:41:00;;;;;;;;;11.67;10.00;;;;;-144.24;100.00;111867.69;5038066;28;45499;-70
2024/02/06 00:43:26;;;;;;;;;13.33;10.00;;;;;-144.24;100.00;111896.22;5051085;28;55922;-70
2024/02/06 00:45:51;;;;;;;;;18.33;12.67;;;;;-144.24;100.00;111774.03;5050265;28;60657;-71
2024/02/06 00:48:17;;;;;;;;;19.67;15.67;;;;;-144.24;100.00;111835.13;5047413;28;63896;-70
2024/02/06 00:50:42;;;;;;;;;11.33;9.67;;;;;-144.24;100.00;111749.59;5052345;28;69702;-70
2024/02/06 00:53:07;;;;;;;;;11.00;10.67;;;;;-144.24;100.00;111582.66;5055512;28;53278;-71
2024/02/06 00:55:33;;;;;;;;;17.00;9.67;;;;;-144.24;100.00;111629.50;5047512;28;57054;-73
2024/02/06 00:57:58;;;;;;;;;13.67;12.00;;;;;-144.24;100.00;111537.88;5029405;28;73916;-73
2024/02/06 01:00:23;;;;;;;;;13.67;11.00;;;;;-144.24;100.00;111564.34;5050391;28;63280;-70
2024/02/06 01:02:49;;;;;;;;;14.00;11.33;;;;;-144.24;100.00;111448.28;5049391;28;56918;-73
2024/02/06 01:05:14;;;;;;;;;10.00;9.00;;;;;-144.24;100.00;111515.47;5049064;28;45547;-72
2024/02/06 01:07:40;;;;;;;;;12.00;12.00;;;;;-144.24;100.00;111470.69;5053102;28;46201;-73
2024/02/06 01:10:06;;;;;;;;;8.00;7.33;;;;;-144.24;100.00;111417.75;5052023;28;45353;-70
2024/02/06 01:12:31;;;;;;;;;15.33;11.33;;;;;-144.24;100.00;111358.72;5045088;28;45347;-70
2024/02/06 01:14:59;;;;;;;;;14.00;11.00;;;;;-144.24;100.00;111446.25;5033691;28;64100;-74
2024/02/06 01:17:24;;;;;;;;;10.00;9.00;;;;;-144.24;100.00;111466.63;5055484;28;46082;-74
2024/02/06 01:19:50;;;;;;;;;11.67;9.00;;;;;-144.24;100.00;111411.66;5047371;28;45462;-71
2024/02/06 01:22:15;;;;;;;;;12.67;11.00;;;;;-144.24;100.00;111372.97;5054627;28;62905;-70
2024/02/06 01:24:41;;;;;;;;;11.33;9.00;;;;;-144.24;100.00;111429.97;5055824;28;45309;-71
2024/02/06 01:27:06;;;;;;;;;17.33;11.00;;;;;-144.24;100.00;111470.69;5051542;28;45890;-70
2024/02/06 01:29:31;;;;;;;;;12.67;10.67;;;;;-144.24;100.00;111507.34;5046667;28;68476;-72
2024/02/06 01:31:57;;;;;;;;;16.00;12.00;;;;;-144.24;100.00;111568.41;5047824;28;45395;-73
2024/02/06 01:34:22;;;;;;;;;10.67;9.33;;;;;-144.24;100.00;111550.09;5054604;28;45557;-71
2024/02/06 01:36:48;;;;;;;;;15.33;11.00;;;;;-144.24;100.00;111676.31;5047537;28;73232;-70
2024/02/06 01:39:13;;;;;;;;;12.33;11.00;;;;;-144.24;100.00;111662.06;5052094;28;71716;-73
2024/02/06 01:41:38;;;;;;;;;11.33;11.00;;;;;-144.24;100.00;111637.63;5055798;28;62486;-70
2024/02/06 01:44:04;;;;;;;;;11.00;11.00;;;;;-144.24;100.00;111731.28;5055822;28;45451;-71
2024/02/06 01:46:29;;;;;;;;;14.67;14.33;;;;;-144.24;100.00;111820.88;5036756;28;49741;-71
2024/02/06 01:48:55;;;;;;;;;15.00;11.33;;;;;-144.24;100.00;111841.22;5033604;28;67271;-70
2024/02/06 01:51:23;;;;;;;;;17.67;11.67;;;;;-144.24;100.00;111886.03;5049807;28;45462;-72
2024/02/06 01:53:49;;;;;;;;;14.00;11.67;;;;;-144.24;100.00;111904.34;5053913;28;45412;-70
2024/02/06 01:56:15;;;;;;;;;14.67;11.00;;;;;-144.24;100.00;111898.25;5040446;28;45792;-71
2024/02/06 01:58:40;;;;;;;;;17.67;15.00;;;;;-144.24;100.00;111875.84;5031811;28;64780;-70
2024/02/06 02:01:06;;;;;;;;;12.00;12.00;;;;;-144.24;100.00;111873.81;5022519;28;45531;-71
2024/02/06 02:03:32;;;;;;;;;16.00;10.33;;;;;-144.24;100.00;111961.38;5040638;28;45397;-71
2024/02/06 02:05:58;;;;;;;;;16.00;14.00;;;;;-144.24;100.00;111894.16;5057441;28;46351;-71
2024/02/06 02:08:24;;;;;;;;;17.33;14.33;;;;;-144.24;100.00;111906.38;5058661;28;45420;-70
2024/02/06 02:10:49;;;;;;;;;16.00;11.33;;;;;-144.24;100.00;111959.31;5032934;28;45312;-72
2024/02/06 02:13:15;;;;;;;;;16.67;14.00;;;;;-144.24;100.00;111881.97;5057758;28;53317;-73
2024/02/06 02:15:40;;;;;;;;;17.33;10.67;;;;;-144.24;100.00;111914.53;5039926;28;50176;-70
2024/02/06 02:18:08;;;;;;;;;18.00;14.33;;;;;-144.24;100.00;111796.44;5039689;28;45452;-74
2024/02/06 02:20:33;;;;;;;;;20.00;14.33;;;;;-144.24;100.00;111920.63;5018728;28;45604;-70
2024/02/06 02:22:59;;;;;;;;;17.50;14.50;;;;;-144.24;100.00;111926.75;5058304;28;45220;-71
2024/02/06 02:25:25;;;;;;;;;17.25;14.25;;;;;-144.24;100.00;111945.06;5039244;28;46406;-73
2024/02/06 02:27:50;;;;;;;;;16.33;12.00;;;;;-144.24;100.00;111967.47;5058629;28;45356;-70
2024/02/06 02:30:16;;;;;;;;;16.25;15.50;;;;;-144.24;100.00;112030.59;5035994;28;45178;-72
2024/02/06 02:32:42;;;;;;;;;16.33;14.00;;;;;-144.24;100.00;112073.34;5038971;28;63548;-73
2024/02/06 02:35:08;;;;;;;;;13.25;11.50;;;;;-144.24;100.00;112061.13;5054996;28;73044;-70
2024/02/06 02:37:33;;;;;;;;;19.00;13.00;;;;;-144.24;100.00;111993.94;5038164;28;45488;-71
2024/02/06 02:39:58;;;;;;;;;26.67;13.33;;;;;-144.24;100.00;112004.13;5054918;28;45691;-70
2024/02/06 02:42:24;;;;;;;;;17.00;16.00;;;;;-144.24;100.00;112073.34;5039997;28;64856;-70
2024/02/06 02:44:49;;;;;;;;;20.33;17.00;;;;;-144.24;100.00;112134.44;5056693;28;72510;-71
2024/02/06 02:47:14;;;;;;;;;16.25;13.75;;;;;-144.24;100.00;112101.88;5038835;28;45423;-71
2024/02/06 02:49:40;;;;;;;;;17.00;15.00;;;;;-144.24;100.00;112205.72;5058513;28;45234;-71
2024/02/06 02:52:05;;;;;;;;;14.00;12.25;;;;;-144.24;100.00;112103.91;5053789;28;65830;-70
2024/02/06 02:54:31;;;;;;;;;21.50;16.00;;;;;-144.24;100.00;112093.72;5054648;28;46663;-72
2024/02/06 02:56:56;;;;;;;;;16.25;15.75;;;;;-144.24;100.00;112160.91;5055567;28;45498;-72
2024/02/06 02:59:22;;;;;;;;;17.25;12.25;;;;;-144.24;100.00;112144.63;5035135;28;45474;-71
2024/02/06 03:01:47;;;;;;;;;17.00;12.75;;;;;-144.24;100.00;112171.09;5056819;28;45415;-70
2024/02/06 03:04:13;;;;;;;;;16.00;11.67;;;;;-144.24;100.00;112244.41;5056027;28;46684;-71
2024/02/06 03:06:38;;;;;;;;;21.75;13.50;;;;;-144.24;100.00;112215.88;5057470;28;45602;-73
2024/02/06 03:09:03;;;;;;;;;21.00;16.00;;;;;-144.24;100.00;112362.50;5053318;28;45517;-71
2024/02/06 03:11:29;;;;;;;;;17.25;14.00;;;;;-144.24;100.00;112366.56;5036205;28;45463;-73
2024/02/06 03:13:55;;;;;;;;;17.25;16.50;;;;;-144.24;100.00;112372.69;5045059;28;46643;-70
2024/02/06 03:16:20;;;;;;;;;16.00;15.00;;;;;-144.24;100.00;112358.44;5053415;28;45466;-70
2024/02/06 03:18:45;;;;;;;;;21.00;17.75;;;;;-144.24;100.00;112529.50;5054923;28;65331;-70
2024/02/06 03:21:11;;;;;;;;;14.00;11.25;;;;;-144.24;100.00;112643.53;5031366;28;63854;-70
2024/02/06 03:23:36;;;;;;;;;13.50;12.25;;;;;-144.24;100.00;112659.81;5037978;28;49878;-70
2024/02/06 03:26:01;;;;;;;;;18.00;16.25;;;;;-144.24;100.00;112661.84;5056782;28;65568;-71
2024/02/06 03:28:27;;;;;;;;;15.50;12.00;;;;;-144.24;100.00;112832.94;5051191;28;64052;-73
2024/02/06 03:30:52;;;;;;;;;19.75;14.25;;;;;-144.24;100.00;112830.88;5054180;28;45353;-71
2024/02/06 03:33:18;;;;;;;;;16.25;12.00;;;;;-144.24;100.00;112910.31;5036171;28;45520;-71
2024/02/06 03:35:43;;;;;;;;;15.50;15.25;;;;;-144.24;100.00;112957.16;5033189;28;46818;-70
2024/02/06 03:38:09;;;;;;;;;17.00;14.25;;;;;-144.24;100.00;113028.44;5032996;28;45591;-73
2024/02/06 03:40:34;;;;;;;;;19.50;15.00;;;;;-144.24;100.00;113061.03;5052609;28;45647;-70
2024/02/06 03:42:59;;;;;;;;;10.75;10.75;;;;;-144.24;100.00;113134.34;5052343;28;46315;-70
2024/02/06 03:45:25;;;;;;;;;16.25;15.00;;;;;-144.24;100.00;113107.88;5055270;28;64532;-71
2024/02/06 03:47:50;;;;;;;;;13.00;11.00;;;;;-144.24;100.00;113140.47;5047362;28;45576;-70
2024/02/06 03:50:15;;;;;;;;;17.25;16.25;;;;;-144.24;100.00;113248.41;5051235;28;61261;-72
2024/02/06 03:52:41;;;;;;;;;17.25;17.00;;;;;-144.24;100.00;113325.81;5034862;28;46391;-72
2024/02/06 03:55:06;;;;;;;;;14.50;12.75;;;;;-144.24;100.00;113299.31;5042897;28;65254;-73
2024/02/06 03:57:32;;;;;;;;;19.00;14.50;;;;;-144.24;100.00;113274.88;5052625;28;45449;-73
2024/02/06 03:59:57;;;;;;;;;15.75;15.75;;;;;-144.24;100.00;113327.84;5053037;28;45505;-70
2024/02/06 04:02:23;;;;;;;;;24.25;17.25;;;;;-144.24;100.00;113352.28;5035297;28;70810;-72
2024/02/06 04:04:48;;;;;;;;;19.50;16.75;;;;;-144.24;100.00;113325.81;5052442;28;45616;-72
2024/02/06 04:07:15;;;;;;;;;21.50;16.00;;;;;-144.24;100.00;113323.75;5033962;28;45501;-71
2024/02/06 04:09:40;;;;;;;;;18.67;13.33;;;;;-144.24;100.00;113360.44;5053677;28;45159;-74
2024/02/06 04:12:06;;;;;;;;;22.00;17.75;;;;;-144.24;100.00;113364.50;5023109;28;71085;-73
2024/02/06 04:14:32;;;;;;;;;10.00;9.67;;;;;-144.24;100.00;113388.94;5046950;28;45469;-70
2024/02/06 04:16:57;;;;;;;;;21.00;14.50;;;;;-144.24;100.00;113370.63;5038142;28;45569;-70
2024/02/06 04:19:23;;;;;;;;;21.00;17.25;;;;;-144.24;100.00;113417.47;5047368;28;52474;-70
2024/02/06 04:21:48;;;;;;;;;16.00;13.67;;;;;-144.24;100.00;113433.75;5053499;28;46418;-71
2024/02/06 04:24:14;;;;;;;;;19.25;15.50;;;;;-144.24;100.00;113486.72;5041360;28;71053;-71
2024/02/06 04:26:40;;;;;;;;;19.75;16.25;;;;;-144.24;100.00;113525.41;5055714;28;58091;-70
2024/02/06 04:29:05;;;;;;;;;17.50;15.75;;;;;-144.24;100.00;113588.56;5049727;28;45331;-72
2024/02/06 04:31:31;;;;;;;;;17.67;15.67;;;;;-144.24;100.00;113629.31;5038057;28;46430;-70
2024/02/06 04:33:56;;;;;;;;;14.67;13.33;;;;;-144.24;100.00;113690.41;5055899;28;68521;-71
2024/02/06 04:36:22;;;;;;;;;23.33;14.33;;;;;-144.24;100.00;113753.56;5054347;28;63593;-70
2024/02/06 04:38:48;;;;;;;;;16.75;16.00;;;;;-144.24;100.00;113802.44;5055376;28;45316;-72
2024/02/06 04:41:14;;;;;;;;;21.75;17.50;;;;;-144.24;100.00;113888.00;5055361;28;45978;-70
2024/02/06 04:43:39;;;;;;;;;17.00;13.75;;;;;-144.24;100.00;113820.78;5032890;28;72680;-73
2024/02/06 04:46:04;;;;;;;;;15.00;12.00;;;;;-144.24;100.00;113812.63;5054569;28;45320;-71
2024/02/06 04:48:30;;;;;;;;;11.00;11.00;;;;;-144.24;100.00;113820.78;5054290;28;63294;-73
2024/02/06 04:50:55;;;;;;;;;21.75;14.25;;;;;-144.24;100.00;113871.72;5047866;28;70738;-70
2024/02/06 04:53:20;;;;;;;;;17.75;15.25;;;;;-144.24;100.00;113796.34;5053828;28;64453;-71
2024/02/06 04:55:46;;;;;;;;;11.25;11.25;;;;;-144.24;100.00;113814.66;5038311;28;45500;-70
2024/02/06 04:58:11;;;;;;;;;20.75;14.50;;;;;-144.24;100.00;113820.78;5050466;28;45431;-70
2024/02/06 05:00:36;;;;;;;;;19.00;14.75;;;;;-144.24;100.00;113769.84;5056050;28;46450;-70
2024/02/06 05:03:02;;;;;;;;;19.00;15.25;;;;;-144.24;100.00;113702.63;5037541;28;55003;-70
2024/02/06 05:05:27;;;;;;;;;16.00;16.00;;;;;-144.24;100.00;113615.03;5055242;28;68433;-71
2024/02/06 05:07:53;;;;;;;;;15.50;12.25;;;;;-144.24;100.00;113672.09;5055364;28;62793;-71
2024/02/06 05:10:18;;;;;;;;;15.25;10.75;;;;;-144.24;100.00;113598.75;5055263;28;73271;-73
2024/02/06 05:12:43;;;;;;;;;17.33;13.33;;;;;-144.24;100.00;113584.50;5048154;28;45549;-71
2024/02/06 05:15:09;;;;;;;;;18.25;15.25;;;;;-144.24;100.00;113521.34;5035557;28;45512;-71
2024/02/06 05:17:34;;;;;;;;;19.67;15.67;;;;;-144.24;100.00;113494.88;5053389;28;45426;-73
2024/02/06 05:20:01;;;;;;;;;17.75;15.00;;;;;-144.24;100.00;113399.13;5045803;28;45894;-70
2024/02/06 05:22:27;;;;;;;;;18.25;16.00;;;;;-144.24;100.00;113329.88;5046735;28;45498;-72
2024/02/06 05:24:52;;;;;;;;;20.25;16.75;;;;;-144.24;100.00;113213.78;5047434;28;58752;-71
2024/02/06 05:27:17;;;;;;;;;20.00;16.25;;;;;-144.24;100.00;113185.25;5049890;28;63935;-69
2024/02/06 05:29:43;;;;;;;;;17.25;14.50;;;;;-144.24;100.00;113173.03;5028804;28;72390;-72
2024/02/06 05:32:08;;;;;;;;;23.00;20.75;;;;;-144.24;100.00;113059.00;5049134;28;64507;-70
2024/02/06 05:34:34;;;;;;;;;14.25;14.25;;;;;-144.24;100.00;113107.88;5036842;28;48673;-73
2024/02/06 05:36:59;;;;;;;;;15.67;15.67;;;;;-144.24;100.00;113124.16;5035896;28;45475;-71
2024/02/06 05:39:25;;;;;;;;;19.00;13.50;;;;;-144.24;100.00;113111.94;5051256;28;72341;-70
2024/02/06 05:41:50;;;;;;;;;19.50;15.75;;;;;-144.24;100.00;113124.16;5049970;28;68946;-70
2024/02/06 05:44:18;;;;;;;;;16.67;15.00;;;;;-144.24;100.00;113020.28;5044902;28;51417;-73
2024/02/06 05:46:43;;;;;;;;;16.50;15.00;;;;;-144.24;100.00;112914.38;5054892;28;45463;-74
2024/02/06 05:49:08;;;;;;;;;17.33;15.00;;;;;-144.24;100.00;112863.47;5028748;28;46890;-70
2024/02/06 05:51:34;;;;;;;;;19.00;15.33;;;;;-144.24;100.00;112755.53;5052610;28;69162;-70
2024/02/06 05:53:59;;;;;;;;;19.00;16.00;;;;;-144.24;100.00;112722.94;5054169;28;67179;-70
2024/02/06 05:56:24;;;;;;;;;20.00;15.67;;;;;-144.24;100.00;112682.22;5054643;28;45338;-70
2024/02/06 05:58:50;;;;;;;;;19.25;14.25;;;;;-144.24;100.00;112641.50;5047368;28;59674;-72
2024/02/06 06:01:15;;;;;;;;;16.00;12.25;;;;;-144.24;100.00;112680.19;5050710;28;64433;-72
2024/02/06 06:03:40;;;;;;;;;17.00;14.75;;;;;-144.24;100.00;112657.78;5049861;28;66090;-70
2024/02/06 06:06:06;;;;;;;;;15.33;12.67;;;;;-144.24;100.00;112696.47;5054469;28;45530;-71
2024/02/06 06:08:31;;;;;;;;;16.00;15.00;;;;;-144.24;100.00;112688.34;5050396;28;46507;-71
2024/02/06 06:10:57;;;;;;;;;16.75;15.50;;;;;-144.24;100.00;112590.56;5049530;28;45578;-70
2024/02/06 06:13:25;;;;;;;;;17.33;14.67;;;;;-144.24;100.00;112615.00;5048043;28;45414;-70
2024/02/06 06:15:51;;;;;;;;;15.50;14.00;;;;;-144.24;100.00;112623.16;5047607;28;45455;-70
2024/02/06 06:18:17;;;;;;;;;19.25;16.75;;;;;-144.24;100.00;112525.41;5033336;28;46999;-72
2024/02/06 06:20:42;;;;;;;;;18.67;13.67;;;;;-144.24;100.00;112594.66;5048891;28;45343;-71
2024/02/06 06:23:07;;;;;;;;;20.67;15.33;;;;;-144.24;100.00;112584.47;5053248;28;45317;-71
2024/02/06 06:25:33;;;;;;;;;16.33;16.33;;;;;-144.24;100.00;112529.50;5046036;28;45312;-72
2024/02/06 06:27:58;;;;;;;;;17.00;13.33;;;;;-144.24;100.00;112488.75;5036971;28;70798;-71
2024/02/06 06:30:23;;;;;;;;;16.00;14.25;;;;;-144.24;100.00;112574.28;5047072;28;61938;-73
2024/02/06 06:32:49;;;;;;;;;15.33;12.00;;;;;-144.24;100.00;112435.81;5050909;28;67425;-71
2024/02/06 06:35:14;;;;;;;;;18.50;16.25;;;;;-144.24;100.00;112535.59;5183121;22;45555;-71
2024/02/06 06:37:40;;;;;;;;;5.67;5.00;;;;;-144.24;100.00;112494.88;5047820;27;48142;-71
2024/02/06 06:40:06;;;;;;;;;17.50;16.00;;;;;-144.24;100.00;112407.31;5097026;27;45526;-71
2024/02/06 06:42:31;;;;;;;;;19.67;15.67;;;;;-144.24;100.00;112421.56;5094502;27;45489;-72
2024/02/06 06:44:56;;;;;;;;;12.00;10.00;;;;;-144.24;100.00;112372.69;5069722;27;49172;-73
2024/02/06 06:47:21;;;;;;;;;21.50;17.50;;;;;-144.24;100.00;112346.22;5093516;27;55049;-73
2024/02/06 06:49:47;;;;;;;;;16.50;15.50;;;;;-144.24;100.00;112350.28;5090837;27;70146;-72
2024/02/06 06:52:12;;;;;;;;;25.33;16.00;;;;;-144.24;100.00;112346.22;5089691;27;45407;-71
2024/02/06 06:54:39;;;;;;;;;15.00;14.00;;;;;-144.24;100.00;112391.00;5091606;27;45329;-71
2024/02/06 06:57:04;;;;;;;;;17.75;17.00;;;;;-144.24;100.00;112388.97;5073092;27;46407;-72
2024/02/06 06:59:31;;;;;;;;;13.00;11.33;;;;;-144.24;100.00;112348.25;5094754;27;45432;-70
2024/02/06 07:01:58;;;;;;;;;16.00;12.67;;;;;-144.24;100.00;112437.84;5087718;27;45437;-71
2024/02/06 07:04:24;;;;;;;;;18.00;16.00;;;;;-144.24;100.00;112541.72;5091004;27;45645;-71
2024/02/06 07:06:49;;;;;;;;;18.00;15.00;;;;;-144.24;100.00;112507.09;5097441;27;45540;-71
2024/02/06 07:09:16;;;;;;;;;20.67;16.00;;;;;-144.24;100.00;112716.84;5090533;27;58493;-71
2024/02/06 07:11:43;;;;;;;;;21.00;15.67;;;;;-144.24;100.00;112670.00;5093736;27;45431;-71
2024/02/06 07:14:08;;;;;;;;;15.00;15.00;;;;;-144.24;100.00;112712.78;5094687;27;45530;-72
2024/02/06 07:16:34;;;;;;;;;18.00;14.67;;;;;-144.24;100.00;112798.31;5092461;27;45628;-71
2024/02/06 07:18:59;;;;;;;;;14.00;12.67;;;;;-144.24;100.00;112847.19;5092034;27;45437;-73
2024/02/06 07:21:24;;;;;;;;;17.67;13.67;;;;;-144.24;100.00;112847.19;5090722;27;68269;-72
2024/02/06 07:23:50;;;;;;;;;13.67;12.33;;;;;-144.24;100.00;112932.72;5071717;27;45593;-72
2024/02/06 07:26:15;;;;;;;;;16.00;12.00;;;;;-144.24;100.00;112912.34;5081310;27;59038;-72
2024/02/06 07:28:41;;;;;;;;;18.67;13.33;;;;;-144.24;100.00;112891.97;5090709;27;45515;-71
2024/02/06 07:31:06;;;;;;;;;15.67;14.67;;;;;-144.24;100.00;112953.09;5090552;27;46031;-70
2024/02/06 07:33:32;;;;;;;;;17.67;16.00;;;;;-144.24;100.00;113001.97;5079684;27;45646;-72
2024/02/06 07:35:57;;;;;;;;;14.33;10.00;;;;;-144.24;100.00;113246.38;5091714;27;45512;-70
2024/02/06 07:38:23;;;;;;;;;16.67;15.00;;;;;-144.24;100.00;113325.81;5089551;27;45482;-69
2024/02/06 07:40:48;;;;;;;;;12.67;11.67;;;;;-144.24;100.00;113364.50;5090796;27;45368;-70
2024/02/06 07:43:13;;;;;;;;;18.33;13.33;;;;;-144.24;100.00;113230.06;5084705;27;45550;-70
2024/02/06 07:45:39;;;;;;;;;20.33;16.00;;;;;-144.24;100.00;113264.69;5089529;27;46843;-70
2024/02/06 07:48:06;;;;;;;;;17.67;13.33;;;;;-144.24;100.00;113183.22;5095144;27;45485;-70
2024/02/06 07:50:31;;;;;;;;;18.00;12.67;;;;;-144.24;100.00;113028.44;5094603;27;45485;-73
2024/02/06 07:52:56;;;;;;;;;12.00;11.00;;;;;-144.24;100.00;112896.06;5070605;27;61717;-73
2024/02/06 07:55:22;;;;;;;;;11.00;11.00;;;;;-144.24;100.00;112798.31;5093032;27;46604;-72
2024/02/06 07:57:47;;;;;;;;;14.00;11.00;;;;;-144.24;100.00;112665.94;5073401;27;46240;-71
2024/02/06 08:00:13;;;;;;;;;16.67;15.00;;;;;-144.24;100.00;112596.69;5096261;27;45581;-71
2024/02/06 08:02:38;;;;;;;;;17.33;13.00;;;;;-144.24;100.00;112545.78;5069283;27;45586;-70
2024/02/06 08:05:05;;;;;;;;;16.33;11.00;;;;;-144.24;100.00;112631.31;5090952;27;62378;-70
2024/02/06 08:07:30;;;;;;;;;15.67;12.00;;;;;-144.24;100.00;112641.50;5091985;27;45565;-69
2024/02/06 08:09:55;;;;;;;;;17.33;10.33;;;;;-144.24;100.00;112692.41;5077296;27;45399;-69
2024/02/06 08:12:21;;;;;;;;;14.00;12.00;;;;;-144.24;100.00;112733.13;5096434;27;45500;-69
2024/02/06 08:14:46;;;;;;;;;8.00;8.00;;;;;-144.24;100.00;112747.38;5072128;27;46811;-73
2024/02/06 08:17:12;;;;;;;;;12.00;11.00;;;;;-144.24;100.00;112963.25;5085990;27;45358;-69
2024/02/06 08:19:38;;;;;;;;;11.00;8.00;;;;;-144.24;100.00;113140.47;5083184;27;45389;-70
2024/02/06 08:22:03;;;;;;;;;15.67;8.33;;;;;-144.24;100.00;113362.47;5087803;27;45400;-70
2024/02/06 08:24:28;;;;;;;;;16.00;10.00;;;;;-144.24;100.00;113431.72;5088657;27;68333;-70
2024/02/06 08:26:55;;;;;;;;;10.33;9.33;;;;;-144.24;100.00;113429.69;5088456;27;50638;-69
2024/02/06 08:29:20;;;;;;;;;11.33;10.00;;;;;-144.24;100.00;113555.97;5087681;27;45561;-71
2024/02/06 08:31:46;;;;;;;;;11.00;8.33;;;;;-144.24;100.00;113674.13;5087191;27;49256;-71
2024/02/06 08:34:12;;;;;;;;;9.00;9.00;;;;;-144.24;100.00;113665.97;5085747;27;45903;-71
2024/02/06 08:36:37;;;;;;;;;10.33;8.33;;;;;-144.24;100.00;113684.31;5075944;27;45505;-73
2024/02/06 08:39:06;;;;;;;;;8.00;8.00;;;;;-144.24;100.00;113782.06;5060897;27;56629;-71
2024/02/06 08:41:35;;;;;;;;;11.00;10.00;;;;;-144.24;100.00;113910.41;5093309;27;45533;-70
2024/02/06 08:44:00;;;;;;;;;12.00;10.00;;;;;-144.24;100.00;113989.88;5075298;27;47469;-71
2024/02/06 08:46:27;;;;;;;;;11.33;10.00;;;;;-144.24;100.00;114020.41;5067050;27;45481;-70
2024/02/06 08:48:52;;;;;;;;;11.33;8.67;;;;;-144.24;100.00;114077.47;5087768;27;45421;-70
2024/02/06 08:51:18;;;;;;;;;9.33;9.33;;;;;-144.24;100.00;114252.66;5088958;27;45427;-72
2024/02/06 08:53:43;;;;;;;;;13.00;10.00;;;;;-144.24;100.00;114309.72;5077441;27;45774;-72
2024/02/06 08:56:09;;;;;;;;;11.67;11.67;;;;;-144.24;100.00;114376.94;5089119;27;45515;-71
2024/02/06 08:58:34;;;;;;;;;13.00;9.00;;;;;-144.24;100.00;114493.06;5085576;27;45538;-71
2024/02/06 09:01:00;;;;;;;;;18.00;13.00;;;;;-144.24;100.00;114460.47;5087276;27;45433;-72
2024/02/06 09:03:25;;;;;;;;;15.67;9.67;;;;;-144.24;100.00;114515.47;5081365;27;46524;-72
2024/02/06 09:05:50;;;;;;;;;10.67;8.67;;;;;-144.24;100.00;114550.13;5091912;27;55081;-70
2024/02/06 09:08:16;;;;;;;;;11.00;6.00;;;;;-144.24;100.00;114586.78;5089985;27;45330;-71
2024/02/06 09:10:42;;;;;;;;;13.33;12.00;;;;;-144.24;100.00;114660.13;5093839;27;45484;-72
2024/02/06 09:13:07;;;;;;;;;11.33;8.33;;;;;-144.24;100.00;114778.31;5073998;27;49508;-70
2024/02/06 09:15:32;;;;;;;;;12.67;10.00;;;;;-144.24;100.00;114865.94;5087250;27;45406;-71
2024/02/06 09:17:59;;;;;;;;;12.00;11.00;;;;;-144.24;100.00;114845.56;5093061;27;45492;-73
2024/02/06 09:20:24;;;;;;;;;10.33;8.00;;;;;-144.24;100.00;114865.94;5072416;27;45545;-70
2024/02/06 09:22:50;;;;;;;;;6.67;6.67;;;;;-144.24;100.00;114865.94;5088191;27;45744;-70
2024/02/06 09:25:16;;;;;;;;;15.67;9.00;;;;;-144.24;100.00;114865.94;5088728;27;45530;-69
2024/02/06 09:27:43;;;;;;;;;11.67;9.67;;;;;-144.24;100.00;114865.94;5072504;27;45497;-70
2024/02/06 09:30:09;;;;;;;;;10.67;9.67;;;;;-144.24;100.00;114865.94;5088243;27;45667;-74
2024/02/06 09:32:35;;;;;;;;;9.00;8.00;;;;;-144.24;100.00;114865.94;5085881;27;45768;-69
2024/02/06 09:35:00;;;;;;;;;10.00;9.00;;;;;-144.24;100.00;114865.94;5087298;27;45464;-69
2024/02/06 09:37:26;;;;;;;;;8.00;8.00;;;;;-144.24;100.00;114865.94;5072080;28;45464;-70
2024/02/06 09:39:52;;;;;;;;;10.33;9.67;;;;;-144.24;100.00;114865.94;5069327;28;46010;-70
2024/02/06 09:42:18;;;;;;;;;8.67;6.00;;;;;-144.24;100.00;114865.94;5068809;28;46581;-70
2024/02/06 09:44:45;;;;;;;;;12.33;10.00;;;;;-144.24;100.00;114865.94;5071159;27;45558;-69
2024/02/06 09:47:10;;;;;;;;;6.33;6.00;;;;;-144.24;100.00;114865.94;5063514;28;45501;-69
2024/02/06 09:49:36;;;;;;;;;11.00;6.67;;;;;-144.24;100.00;114865.94;5062544;28;45461;-71
2024/02/06 09:52:03;;;;;;;;;10.67;6.00;;;;;-144.24;100.00;114865.94;5065549;28;46992;-70
2024/02/06 09:54:29;;;;;;;;;10.67;7.00;;;;;-144.24;100.00;114865.94;5065326;28;45523;-69
2024/02/06 09:56:56;;;;;;;;;10.00;6.00;;;;;-144.24;100.00;114865.94;5039122;28;45636;-69
2024/02/06 09:59:23;;;;;;;;;13.00;9.00;;;;;-144.24;100.00;114865.94;5067460;28;45522;-69
2024/02/06 10:01:49;;;;;;;;;11.00;8.33;;;;;-144.24;100.00;114865.94;5071256;27;46141;-71
2024/02/06 10:04:16;;;;;;;;;13.33;6.67;;;;;-144.24;100.00;114865.94;5051500;28;45545;-69
2024/02/06 10:06:44;;;;;;;;;6.00;4.00;;;;;-144.24;100.00;114865.94;5077403;27;45604;-69
2024/02/06 10:09:11;;;;;;;;;11.33;5.33;;;;;-144.24;100.00;114865.94;5065104;28;45584;-69
2024/02/06 10:11:37;;;;;;;;;8.33;5.00;;;;;-144.24;100.00;114865.94;5072717;28;45786;-69
2024/02/06 10:14:04;;;;;;;;;9.00;7.00;;;;;-144.24;100.00;114865.94;5070090;28;45501;-70
2024/02/06 10:16:29;;;;;;;;;6.33;5.33;;;;;-144.24;100.00;114865.94;5073415;28;45518;-71
2024/02/06 10:18:56;;;;;;;;;10.67;6.00;;;;;-144.24;100.00;114865.94;5065097;28;55082;-70
2024/02/06 10:21:21;;;;;;;;;10.67;6.00;;;;;-144.24;100.00;114865.94;5049915;28;46682;-70
2024/02/06 10:23:48;;;;;;;;;9.33;6.33;;;;;-144.24;100.00;114865.94;5065652;28;45607;-70
2024/02/06 10:26:18;;;;;;;;;9.67;6.67;;;;;-144.24;100.00;114865.94;5048762;28;45456;-72
2024/02/06 10:28:43;;;;;;;;;7.67;6.00;;;;;-144.24;100.00;114865.94;5053250;28;45926;-70
2024/02/06 10:31:12;;;;;;;;;12.00;8.33;;;;;-144.24;100.00;114865.94;5065691;28;46474;-70
2024/02/06 10:33:40;;;;;;;;;5.67;5.33;;;;;-144.24;100.00;114865.94;5053023;28;46305;-69
2024/02/06 10:36:06;;;;;;;;;8.33;5.67;;;;;-144.24;100.00;114865.94;5079590;27;45428;-70
2024/02/06 10:38:32;;;;;;;;;7.67;6.67;;;;;-144.24;100.00;114865.94;5084455;27;45472;-70
2024/02/06 10:40:58;;;;;;;;;7.00;5.33;;;;;-144.24;100.00;114865.94;5062275;28;46329;-69
2024/02/06 10:43:30;;;;;;;;;7.67;5.00;;;;;-144.24;100.00;114865.94;5074941;27;45504;-70